Terminal Aerodrome Forecast
Issued by NWS

Home | Current Version | Previous Version | Text Only | Print | Product List | Glossary On
Versions: 1 2 3 4 5 6 7 8 9 10 11 12 13 14 15 16 17 18 19 20 21 22
000
FTUS42 KGSP 201400 AAA
TAFAND
TAF AMD
KAND 201444Z 2015/2112 05015G26KT P6SM SCT090
     FM201800 05015G24KT P6SM FEW080 SCT250
     FM210200 04006KT P6SM FEW250=

USA.gov is the U.S. government's official web portal to all federal, state and local government web resources and services.